createdAt,value
2024-03-03T00:00:48.817Z,100192.84
2024-03-03T00:03:16.713Z,100189.63
2024-03-03T00:05:44.449Z,100191.19
2024-03-03T00:08:11.375Z,100188.72
2024-03-03T00:10:38.238Z,100193.63
2024-03-03T00:13:05.405Z,100184.72
2024-03-03T00:15:32.380Z,100192.13
2024-03-03T00:17:59.488Z,100186.97
2024-03-03T00:20:26.388Z,100187.72
2024-03-03T00:22:53.610Z,100186.91
2024-03-03T00:25:20.550Z,100196.06
2024-03-03T00:27:47.636Z,100189.91
2024-03-03T00:30:14.695Z,100188.16
2024-03-03T00:32:45.277Z,100184.41
2024-03-03T00:35:13.145Z,100186.03
2024-03-03T00:37:39.998Z,100177.28
2024-03-03T00:40:07.636Z,100176.38
2024-03-03T00:42:34.608Z,100177.91
2024-03-03T00:45:02.120Z,100174.72
2024-03-03T00:47:29.314Z,100175.66
2024-03-03T00:49:56.474Z,100177.19
2024-03-03T00:52:23.472Z,100172.72
2024-03-03T00:54:50.410Z,100181.63
2024-03-03T00:57:17.378Z,100182.41
2024-03-03T00:59:44.270Z,100190.72
2024-03-03T01:02:11.370Z,100184.56
2024-03-03T01:04:38.307Z,100184.41
2024-03-03T01:07:05.261Z,100182.56
2024-03-03T01:09:33.051Z,100192.38
2024-03-03T01:12:00.045Z,100184.72
2024-03-03T01:14:27.077Z,100181.44
2024-03-03T01:16:54.121Z,100180.78
2024-03-03T01:19:21.472Z,100181.69
2024-03-03T01:21:48.558Z,100173.78
2024-03-03T01:24:15.545Z,100174.84
2024-03-03T01:26:42.816Z,100171.44
2024-03-03T01:29:09.679Z,100167.63
2024-03-03T01:31:36.935Z,100171.44
2024-03-03T01:34:03.964Z,100166.31
2024-03-03T01:36:31.068Z,100167.59
2024-03-03T01:38:57.978Z,100179.00
2024-03-03T01:41:24.927Z,100166.38
2024-03-03T01:43:52.431Z,100173.59
2024-03-03T01:46:19.814Z,100177.09
2024-03-03T01:48:47.821Z,100179.63
2024-03-03T01:51:15.483Z,100173.41
2024-03-03T01:53:46.357Z,100174.13
2024-03-03T01:56:13.642Z,100170.97
2024-03-03T01:58:41.085Z,100176.59
2024-03-03T02:01:08.870Z,100167.13
2024-03-03T02:03:35.955Z,100173.63
2024-03-03T02:06:03.686Z,100168.41
2024-03-03T02:08:31.644Z,100177.94
2024-03-03T02:10:59.628Z,100173.00
2024-03-03T02:13:26.950Z,100177.66
2024-03-03T02:15:54.155Z,100177.72
2024-03-03T02:18:21.159Z,100181.47
2024-03-03T02:20:48.091Z,100172.25
2024-03-03T02:23:15.425Z,100171.41
2024-03-03T02:25:42.454Z,100176.22
2024-03-03T02:28:10.882Z,100163.81
2024-03-03T02:30:38.005Z,100168.09
2024-03-03T02:33:05.144Z,100167.25
2024-03-03T02:35:32.223Z,100168.88
2024-03-03T02:37:59.203Z,100173.47
2024-03-03T02:40:26.229Z,100175.06
2024-03-03T02:42:53.158Z,100170.59
2024-03-03T02:45:20.135Z,100164.69
2024-03-03T02:47:49.391Z,100163.66
2024-03-03T02:50:16.595Z,100166.81
2024-03-03T02:52:43.482Z,100175.69
2024-03-03T02:55:10.404Z,100170.47
2024-03-03T02:57:38.754Z,100164.81
2024-03-03T03:00:08.907Z,100166.72
2024-03-03T03:02:35.815Z,100159.56
2024-03-03T03:05:02.740Z,100168.72
2024-03-03T03:07:29.640Z,100171.53
2024-03-03T03:09:57.411Z,100166.19
2024-03-03T03:12:24.418Z,100159.59
2024-03-03T03:14:51.319Z,100161.00
2024-03-03T03:17:18.265Z,100164.69
2024-03-03T03:19:46.184Z,100164.16
2024-03-03T03:22:13.601Z,100165.59
2024-03-03T03:24:40.605Z,100164.66
2024-03-03T03:27:07.679Z,100165.31
2024-03-03T03:29:35.172Z,100160.16
2024-03-03T03:32:02.232Z,100160.56
2024-03-03T03:34:29.206Z,100166.25
2024-03-03T03:36:56.590Z,100166.47
2024-03-03T03:39:23.746Z,100166.66
2024-03-03T03:41:51.443Z,100177.78
2024-03-03T03:44:20.235Z,100176.09
2024-03-03T03:46:47.671Z,100180.44
2024-03-03T03:49:15.815Z,100177.97
2024-03-03T03:51:43.389Z,100170.91
2024-03-03T03:54:10.554Z,100176.03
2024-03-03T03:56:37.945Z,100170.16
2024-03-03T03:59:04.879Z,100170.69
2024-03-03T04:01:32.245Z,100169.59
2024-03-03T04:03:59.971Z,100168.81
2024-03-03T04:06:29.678Z,100167.59
2024-03-03T04:08:56.727Z,100172.88
2024-03-03T04:11:24.116Z,100179.66
2024-03-03T04:13:51.564Z,100179.97
2024-03-03T04:16:22.181Z,100177.97
2024-03-03T04:18:49.485Z,100180.66
2024-03-03T04:21:17.540Z,100172.56
2024-03-03T04:23:45.016Z,100179.47
2024-03-03T04:26:13.938Z,100181.88
2024-03-03T04:28:41.035Z,100176.63
2024-03-03T04:31:08.390Z,100176.06
2024-03-03T04:33:37.009Z,100181.28
2024-03-03T04:36:09.261Z,100179.34
2024-03-03T04:38:38.315Z,100177.97
2024-03-03T04:41:14.267Z,100185.84
2024-03-03T04:43:41.893Z,100175.88
2024-03-03T04:46:09.857Z,100183.28
2024-03-03T04:48:37.610Z,100181.16
2024-03-03T04:51:05.354Z,100183.56
2024-03-03T04:53:32.226Z,100187.81
2024-03-03T04:55:59.178Z,100173.78
2024-03-03T04:58:26.142Z,100176.19
2024-03-03T05:00:53.190Z,100182.66
2024-03-03T05:03:20.149Z,100184.78
2024-03-03T05:05:47.173Z,100180.88
2024-03-03T05:08:14.219Z,100184.19
2024-03-03T05:10:41.271Z,100184.59
2024-03-03T05:13:08.258Z,100185.63
2024-03-03T05:15:35.243Z,100188.63
2024-03-03T05:18:02.181Z,100202.41
2024-03-03T05:20:29.073Z,100201.94
2024-03-03T05:22:55.992Z,100203.50
2024-03-03T05:25:22.964Z,100210.75
2024-03-03T05:27:49.936Z,100193.63
2024-03-03T05:30:16.935Z,100215.75
2024-03-03T05:32:43.887Z,100223.13
2024-03-03T05:35:11.356Z,100227.66
2024-03-03T05:37:38.302Z,100226.47
2024-03-03T05:40:05.930Z,100243.22
2024-03-03T05:42:32.840Z,100239.59
2024-03-03T05:44:59.791Z,100242.41
2024-03-03T05:47:27.333Z,100247.44
2024-03-03T05:49:54.241Z,100247.13
2024-03-03T05:52:21.350Z,100247.09
2024-03-03T05:54:48.448Z,100260.78
2024-03-03T05:57:15.486Z,100261.19
2024-03-03T05:59:42.575Z,100253.16
2024-03-03T06:02:09.523Z,100251.69
2024-03-03T06:04:38.003Z,100242.63
2024-03-03T06:07:05.710Z,100233.59
2024-03-03T06:09:32.885Z,100237.84
2024-03-03T06:12:01.128Z,100233.44
2024-03-03T06:14:28.078Z,100231.91
2024-03-03T06:16:55.120Z,100227.84
2024-03-03T06:19:22.140Z,100231.00
2024-03-03T06:21:51.591Z,100231.97
2024-03-03T06:24:19.361Z,100227.41
2024-03-03T06:26:47.206Z,100240.59
2024-03-03T06:29:14.161Z,100232.47
2024-03-03T06:31:47.379Z,100244.97
2024-03-03T06:34:14.723Z,100248.03
2024-03-03T06:36:42.183Z,100256.31
2024-03-03T06:39:14.119Z,100250.78
2024-03-03T06:41:45.076Z,100253.47
2024-03-03T06:44:18.051Z,100262.16
2024-03-03T06:46:46.806Z,100264.78
2024-03-03T06:49:14.599Z,100272.66
2024-03-03T06:51:41.904Z,100271.31
2024-03-03T06:54:08.930Z,100280.22
2024-03-03T06:56:36.017Z,100282.34
2024-03-03T06:59:02.957Z,100272.06
2024-03-03T07:01:32.002Z,100278.56
2024-03-03T07:04:17.993Z,100275.34
2024-03-03T07:06:45.045Z,100278.50
2024-03-03T07:09:12.030Z,100276.81
2024-03-03T07:11:39.207Z,100281.94
2024-03-03T07:14:06.892Z,100284.53
2024-03-03T07:16:34.050Z,100279.78
2024-03-03T07:19:01.132Z,100277.47
2024-03-03T07:21:29.492Z,100284.19
2024-03-03T07:23:56.402Z,100268.91
2024-03-03T07:26:23.305Z,100263.81
2024-03-03T07:28:52.353Z,100263.03
2024-03-03T07:31:19.940Z,100265.88
2024-03-03T07:33:47.004Z,100273.56
2024-03-03T07:36:14.048Z,100277.75
2024-03-03T07:38:41.364Z,100284.34
2024-03-03T07:41:08.331Z,100287.34
2024-03-03T07:43:35.626Z,100299.91
2024-03-03T07:46:02.630Z,100299.38
2024-03-03T07:48:29.699Z,100298.19
2024-03-03T07:50:56.754Z,100292.56
2024-03-03T07:53:24.279Z,100303.41
2024-03-03T07:55:51.431Z,100310.53
2024-03-03T07:58:18.510Z,100316.25
2024-03-03T08:00:45.917Z,100302.31
2024-03-03T08:03:13.639Z,100296.84
2024-03-03T08:05:40.641Z,100311.50
2024-03-03T08:08:07.907Z,100303.16
2024-03-03T08:10:35.053Z,100315.19
2024-03-03T08:13:02.129Z,100322.34
2024-03-03T08:15:29.222Z,100322.88
2024-03-03T08:18:00.520Z,100333.31
2024-03-03T08:20:29.486Z,100328.47
2024-03-03T08:22:56.702Z,100324.81
2024-03-03T08:25:25.743Z,100326.47
2024-03-03T08:27:54.006Z,100315.44
2024-03-03T08:30:21.352Z,100314.59
2024-03-03T08:32:48.499Z,100319.75
2024-03-03T08:35:15.980Z,100329.00
2024-03-03T08:37:45.888Z,100317.31
2024-03-03T08:40:13.197Z,100324.34
2024-03-03T08:42:40.408Z,100328.81
2024-03-03T08:45:08.058Z,100326.00
2024-03-03T08:47:35.233Z,100326.16
2024-03-03T08:50:02.579Z,100326.13
2024-03-03T08:52:29.684Z,100325.81
2024-03-03T08:54:56.663Z,100326.28
2024-03-03T08:57:26.449Z,100324.84
2024-03-03T08:59:53.444Z,100324.72
2024-03-03T09:02:20.353Z,100325.56
2024-03-03T09:04:47.328Z,100310.50
2024-03-03T09:07:14.703Z,100310.28
2024-03-03T09:09:44.198Z,100312.47
2024-03-03T09:12:12.806Z,100304.31
2024-03-03T09:14:40.099Z,100303.69
2024-03-03T09:17:07.077Z,100296.84
2024-03-03T09:19:34.241Z,100305.00
2024-03-03T09:22:01.327Z,100302.66
2024-03-03T09:24:28.383Z,100295.34
2024-03-03T09:26:55.321Z,100305.31
2024-03-03T09:29:25.118Z,100300.00
2024-03-03T09:31:55.521Z,100311.16
2024-03-03T09:34:23.606Z,100312.84
2024-03-03T09:36:51.000Z,100312.97
2024-03-03T09:39:18.429Z,100319.16
2024-03-03T09:41:45.559Z,100311.63
2024-03-03T09:44:19.083Z,100316.25
2024-03-03T09:46:47.971Z,100315.19
2024-03-03T09:49:19.691Z,100319.06
2024-03-03T09:51:48.313Z,100314.03
2024-03-03T09:54:19.860Z,100314.03
2024-03-03T09:56:49.204Z,100315.88
2024-03-03T09:59:17.114Z,100309.38
2024-03-03T10:02:00.547Z,100322.25
2024-03-03T10:04:30.046Z,100315.56
2024-03-03T10:07:01.241Z,100318.44
2024-03-03T10:09:30.669Z,100311.38
2024-03-03T10:11:58.532Z,100309.41
2024-03-03T10:14:27.241Z,100312.44
2024-03-03T10:16:54.159Z,100312.31
2024-03-03T10:19:21.209Z,100308.84
2024-03-03T10:21:49.054Z,100309.22
2024-03-03T10:24:27.970Z,100318.63
2024-03-03T10:26:57.051Z,100311.47
2024-03-03T10:29:28.817Z,100315.34
2024-03-03T10:31:56.998Z,100314.38
2024-03-03T10:34:25.275Z,100315.75
2024-03-03T10:37:03.920Z,100315.38
2024-03-03T10:39:36.529Z,100321.75
2024-03-03T10:42:11.083Z,100322.28
2024-03-03T10:44:38.865Z,100312.31
2024-03-03T10:47:10.235Z,100312.72
2024-03-03T10:49:40.183Z,100317.91
2024-03-03T10:52:12.024Z,100313.22
2024-03-03T10:54:43.126Z,100304.34
2024-03-03T10:57:11.265Z,100300.09
2024-03-03T10:59:42.649Z,100297.28
2024-03-03T11:02:13.860Z,100294.94
2024-03-03T11:04:43.056Z,100295.41
2024-03-03T11:07:12.144Z,100300.94
2024-03-03T11:09:39.643Z,100298.16
2024-03-03T11:12:09.153Z,100301.50
2024-03-03T11:14:46.824Z,100290.41
2024-03-03T11:17:23.063Z,100293.63
2024-03-03T11:19:51.449Z,100294.38
2024-03-03T11:22:23.598Z,100295.59
2024-03-03T11:25:17.016Z,100281.81
2024-03-03T11:27:51.667Z,100287.13
2024-03-03T11:30:18.964Z,100290.50
2024-03-03T11:32:46.834Z,100285.03
2024-03-03T11:35:14.587Z,100294.38
2024-03-03T11:37:41.599Z,100292.34
2024-03-03T11:40:17.859Z,100288.19
2024-03-03T11:42:47.599Z,100290.56
2024-03-03T11:45:15.035Z,100289.03
2024-03-03T11:47:50.782Z,100285.97
2024-03-03T11:50:22.991Z,100278.25
2024-03-03T11:52:51.446Z,100277.56
2024-03-03T11:55:26.118Z,100282.19
2024-03-03T11:57:56.363Z,100286.06
2024-03-03T12:00:28.749Z,100281.50
2024-03-03T12:02:57.230Z,100282.00
2024-03-03T12:05:24.296Z,100285.22
2024-03-03T12:07:55.523Z,100290.78
2024-03-03T12:10:28.304Z,100290.25
2024-03-03T12:13:00.610Z,100290.59
2024-03-03T12:15:29.337Z,100293.28
2024-03-03T12:17:58.586Z,100294.19
2024-03-03T12:20:27.793Z,100283.03
2024-03-03T12:22:55.837Z,100286.25
2024-03-03T12:25:25.471Z,100284.53
2024-03-03T12:28:03.376Z,100277.72
2024-03-03T12:30:33.630Z,100280.03
2024-03-03T12:33:01.970Z,100272.34
2024-03-03T12:35:29.385Z,100274.03
2024-03-03T12:37:56.855Z,100269.19
2024-03-03T12:40:26.418Z,100267.97
2024-03-03T12:42:54.010Z,100257.66
2024-03-03T12:45:21.297Z,100257.63
2024-03-03T12:47:51.454Z,100257.03
2024-03-03T12:50:20.474Z,100256.72
2024-03-03T12:52:48.675Z,100251.78
2024-03-03T12:55:16.600Z,100254.47
2024-03-03T12:57:45.641Z,100255.09
2024-03-03T13:00:19.450Z,100259.28
2024-03-03T13:02:46.840Z,100259.84
2024-03-03T13:05:15.699Z,100258.56
2024-03-03T13:07:53.023Z,100259.19
2024-03-03T13:10:24.953Z,100254.38
2024-03-03T13:12:53.426Z,100245.59
2024-03-03T13:15:25.089Z,100239.38
2024-03-03T13:18:08.034Z,100237.97
2024-03-03T13:20:35.623Z,100238.94
2024-03-03T13:23:11.950Z,100229.44
2024-03-03T13:25:40.823Z,100225.94
2024-03-03T13:28:08.293Z,100230.47
2024-03-03T13:30:35.911Z,100232.28
2024-03-03T13:33:02.927Z,100221.81
2024-03-03T13:35:30.090Z,100222.78
2024-03-03T13:37:57.175Z,100225.84
2024-03-03T13:40:24.135Z,100225.41
2024-03-03T13:42:51.107Z,100225.16
2024-03-03T13:45:18.471Z,100222.09
2024-03-03T13:47:45.491Z,100223.69
2024-03-03T13:50:12.710Z,100227.91
2024-03-03T13:52:39.793Z,100232.78
2024-03-03T13:55:07.448Z,100234.31
2024-03-03T13:57:34.594Z,100234.91
2024-03-03T14:00:01.557Z,100231.16
2024-03-03T14:02:38.871Z,100231.59
2024-03-03T14:05:06.169Z,100230.13
2024-03-03T14:07:33.273Z,100243.66
2024-03-03T14:10:00.884Z,100241.41
2024-03-03T14:12:28.059Z,100244.69
2024-03-03T14:14:54.986Z,100231.84
2024-03-03T14:17:21.904Z,100232.22
2024-03-03T14:19:48.882Z,100232.41
2024-03-03T14:22:16.086Z,100233.28
2024-03-03T14:24:43.673Z,100235.78
2024-03-03T14:27:10.705Z,100245.53
2024-03-03T14:29:38.039Z,100246.56
2024-03-03T14:32:05.296Z,100246.16
2024-03-03T14:34:32.226Z,100245.13
2024-03-03T14:37:01.154Z,100233.06
2024-03-03T14:39:28.286Z,100231.38
2024-03-03T14:41:55.169Z,100238.69
2024-03-03T14:44:22.068Z,100243.19
2024-03-03T14:46:49.005Z,100245.25
2024-03-03T14:49:17.914Z,100239.94
2024-03-03T14:51:44.783Z,100244.75
2024-03-03T14:54:14.108Z,100247.13
2024-03-03T14:56:41.342Z,100231.22
2024-03-03T14:59:08.392Z,100232.78
2024-03-03T15:01:35.368Z,100231.41
2024-03-03T15:04:03.654Z,100231.78
2024-03-03T15:06:30.558Z,100231.41
2024-03-03T15:08:57.577Z,100227.53
2024-03-03T15:11:24.658Z,100230.88
2024-03-03T15:13:51.608Z,100226.84
2024-03-03T15:16:20.406Z,100225.56
2024-03-03T15:18:47.386Z,100227.75
2024-03-03T15:21:14.283Z,100219.19
2024-03-03T15:23:41.716Z,100227.41
2024-03-03T15:26:08.651Z,100227.28
2024-03-03T15:28:35.649Z,100229.88
2024-03-03T15:31:03.898Z,100236.78
2024-03-03T15:33:31.901Z,100238.88
2024-03-03T15:35:59.976Z,100251.13
2024-03-03T15:38:28.026Z,100247.59
2024-03-03T15:40:54.936Z,100250.66
2024-03-03T15:43:21.901Z,100244.88
2024-03-03T15:45:49.637Z,100238.34
2024-03-03T15:48:17.408Z,100242.84
2024-03-03T15:50:44.338Z,100240.56
2024-03-03T15:53:11.328Z,100242.25
2024-03-03T15:55:39.352Z,100246.34
2024-03-03T15:58:06.704Z,100243.66
2024-03-03T16:00:33.850Z,100258.34
2024-03-03T16:03:02.710Z,100259.84
2024-03-03T16:05:32.527Z,100256.00
2024-03-03T16:07:59.998Z,100266.63
2024-03-03T16:10:26.941Z,100260.84
2024-03-03T16:12:53.936Z,100268.72
2024-03-03T16:15:22.994Z,100261.78
2024-03-03T16:17:50.552Z,100259.28
2024-03-03T16:20:18.201Z,100263.69
2024-03-03T16:22:45.283Z,100265.84
2024-03-03T16:25:12.547Z,100259.91
2024-03-03T16:27:39.593Z,100277.84
2024-03-03T16:30:07.330Z,100277.31
2024-03-03T16:32:34.393Z,100281.22
2024-03-03T16:35:01.359Z,100278.38
2024-03-03T16:37:28.429Z,100283.06
2024-03-03T16:39:56.499Z,100287.16
2024-03-03T16:42:23.575Z,100286.88
2024-03-03T16:44:50.758Z,100303.22
2024-03-03T16:47:17.948Z,100302.97
2024-03-03T16:49:45.254Z,100300.06
2024-03-03T16:52:12.259Z,100313.34
2024-03-03T16:54:39.689Z,100311.81
2024-03-03T16:57:06.881Z,100310.88
2024-03-03T16:59:33.836Z,100312.03
2024-03-03T17:02:00.917Z,100318.22
2024-03-03T17:04:28.080Z,100327.56
2024-03-03T17:06:55.145Z,100329.09
2024-03-03T17:09:22.357Z,100331.56
2024-03-03T17:11:49.264Z,100334.56
2024-03-03T17:14:16.220Z,100343.63
2024-03-03T17:16:43.274Z,100337.56
2024-03-03T17:19:10.357Z,100332.06
2024-03-03T17:21:37.281Z,100344.75
2024-03-03T17:24:04.435Z,100353.78
2024-03-03T17:26:31.846Z,100350.69
2024-03-03T17:28:58.857Z,100362.34
2024-03-03T17:31:25.859Z,100365.97
2024-03-03T17:33:54.364Z,100369.81
2024-03-03T17:36:24.707Z,100370.78
2024-03-03T17:38:52.771Z,100371.03
2024-03-03T17:41:19.782Z,100379.94
2024-03-03T17:43:47.915Z,100388.69
2024-03-03T17:46:15.004Z,100390.00
2024-03-03T17:48:42.002Z,100391.94
2024-03-03T17:51:09.081Z,100398.44
2024-03-03T17:53:36.010Z,100403.44
2024-03-03T17:56:05.628Z,100411.38
2024-03-03T17:58:32.856Z,100412.66
2024-03-03T18:00:59.971Z,100410.78
2024-03-03T18:03:27.180Z,100426.50
2024-03-03T18:05:54.186Z,100429.13
2024-03-03T18:08:21.282Z,100425.38
2024-03-03T18:10:48.222Z,100438.34
2024-03-03T18:13:15.255Z,100432.31
2024-03-03T18:15:42.225Z,100444.03
2024-03-03T18:18:10.393Z,100428.28
2024-03-03T18:20:37.384Z,100430.97
2024-03-03T18:23:04.535Z,100432.97
2024-03-03T18:25:31.690Z,100436.91
2024-03-03T18:27:58.695Z,100429.09
2024-03-03T18:30:27.168Z,100442.31
2024-03-03T18:32:58.673Z,100445.19
2024-03-03T18:35:25.626Z,100445.88
2024-03-03T18:37:52.657Z,100442.06
2024-03-03T18:40:19.724Z,100451.06
2024-03-03T18:42:48.282Z,100453.53
2024-03-03T18:45:15.548Z,100463.16
2024-03-03T18:47:42.645Z,100454.03
2024-03-03T18:50:10.539Z,100457.41
2024-03-03T18:52:37.765Z,100467.75
2024-03-03T18:55:06.260Z,100463.31
2024-03-03T18:57:34.480Z,100475.53
2024-03-03T19:00:01.516Z,100482.69
2024-03-03T19:02:29.085Z,100484.97
2024-03-03T19:04:56.119Z,100471.53
2024-03-03T19:07:23.149Z,100489.78
2024-03-03T19:09:50.224Z,100498.13
2024-03-03T19:12:17.349Z,100497.44
2024-03-03T19:14:44.329Z,100499.63
2024-03-03T19:17:11.309Z,100504.63
2024-03-03T19:19:40.176Z,100499.13
2024-03-03T19:22:07.267Z,100501.53
2024-03-03T19:24:34.259Z,100501.66
2024-03-03T19:27:01.212Z,100506.16
2024-03-03T19:29:29.457Z,100509.00
2024-03-03T19:31:56.429Z,100515.03
2024-03-03T19:34:23.782Z,100514.53
2024-03-03T19:36:50.870Z,100510.06
2024-03-03T19:39:17.873Z,100525.28
2024-03-03T19:41:44.783Z,100524.59
2024-03-03T19:44:13.183Z,100529.91
2024-03-03T19:46:43.914Z,100531.13
2024-03-03T19:49:12.524Z,100521.63
2024-03-03T19:51:39.554Z,100527.94
2024-03-03T19:54:06.513Z,100529.94
2024-03-03T19:56:33.548Z,100529.09
2024-03-03T19:59:00.641Z,100525.44
2024-03-03T20:01:27.787Z,100541.97
2024-03-03T20:03:54.913Z,100537.97
2024-03-03T20:06:21.989Z,100529.78
2024-03-03T20:08:48.941Z,100535.97
2024-03-03T20:11:16.290Z,100532.78
2024-03-03T20:13:44.310Z,100533.13
2024-03-03T20:16:11.951Z,100529.59
2024-03-03T20:18:47.308Z,100529.59
2024-03-03T20:21:14.317Z,100527.44
2024-03-03T20:23:41.257Z,100533.56
2024-03-03T20:26:08.269Z,100533.09
2024-03-03T20:28:36.176Z,100533.03
2024-03-03T20:31:03.176Z,100523.94
2024-03-03T20:33:30.315Z,100532.53
2024-03-03T20:35:57.272Z,100532.06
2024-03-03T20:38:24.247Z,100535.97
2024-03-03T20:40:52.135Z,100545.50
2024-03-03T20:43:19.365Z,100541.44
2024-03-03T20:45:48.589Z,100546.97
2024-03-03T20:48:16.130Z,100548.09
2024-03-03T20:50:43.098Z,100553.41
2024-03-03T20:53:10.159Z,100549.53
2024-03-03T20:55:37.295Z,100543.09
2024-03-03T20:58:04.480Z,100543.63
2024-03-03T21:00:31.607Z,100540.81
2024-03-03T21:02:58.907Z,100555.00
2024-03-03T21:05:26.523Z,100553.25
2024-03-03T21:07:53.602Z,100563.09
2024-03-03T21:10:22.962Z,100552.28
2024-03-03T21:12:50.223Z,100550.22
2024-03-03T21:15:17.375Z,100564.41
2024-03-03T21:17:44.344Z,100558.78
2024-03-03T21:20:14.430Z,100558.38
2024-03-03T21:22:44.478Z,100562.91
2024-03-03T21:25:14.624Z,100569.63
2024-03-03T21:27:41.662Z,100567.03
2024-03-03T21:30:09.763Z,100580.16
2024-03-03T21:32:36.739Z,100579.22
2024-03-03T21:35:03.801Z,100576.00
2024-03-03T21:37:30.788Z,100573.28
2024-03-03T21:39:57.716Z,100573.03
2024-03-03T21:42:24.728Z,100569.50
2024-03-03T21:44:51.878Z,100570.66
2024-03-03T21:47:18.846Z,100576.63
2024-03-03T21:49:47.247Z,100582.16
2024-03-03T21:52:14.336Z,100579.16
2024-03-03T21:54:41.355Z,100591.88
2024-03-03T21:57:08.513Z,100583.28
2024-03-03T21:59:35.462Z,100597.00
2024-03-03T22:02:07.999Z,100596.66
2024-03-03T22:04:35.869Z,100599.09
2024-03-03T22:07:03.338Z,100602.34
2024-03-03T22:09:30.379Z,100602.59
2024-03-03T22:11:57.601Z,100607.81
2024-03-03T22:14:24.515Z,100612.91
2024-03-03T22:16:51.493Z,100617.47
2024-03-03T22:19:19.021Z,100619.41
2024-03-03T22:21:46.119Z,100617.16
2024-03-03T22:24:13.965Z,100621.47
2024-03-03T22:26:43.157Z,100621.28
2024-03-03T22:29:11.289Z,100626.78
2024-03-03T22:31:38.556Z,100626.31
2024-03-03T22:34:05.594Z,100629.84
2024-03-03T22:36:32.681Z,100628.13
2024-03-03T22:38:59.601Z,100633.34
2024-03-03T22:41:27.300Z,100628.97
2024-03-03T22:43:54.253Z,100629.28
2024-03-03T22:46:23.173Z,100627.25
2024-03-03T22:48:50.265Z,100628.59
2024-03-03T22:51:17.262Z,100634.91
2024-03-03T22:53:45.144Z,100625.81
2024-03-03T22:56:12.160Z,100626.69
2024-03-03T22:58:39.204Z,100639.88
2024-03-03T23:01:06.271Z,100634.59
2024-03-03T23:03:33.549Z,100639.56
2024-03-03T23:06:00.410Z,100640.94
2024-03-03T23:08:27.379Z,100645.88
2024-03-03T23:10:54.380Z,100644.50
2024-03-03T23:13:21.786Z,100643.94
2024-03-03T23:15:48.764Z,100655.34
2024-03-03T23:18:16.417Z,100651.59
2024-03-03T23:20:43.399Z,100649.75
2024-03-03T23:23:10.379Z,100659.34
2024-03-03T23:25:37.388Z,100655.47
2024-03-03T23:28:04.737Z,100657.25
2024-03-03T23:30:31.721Z,100657.72
2024-03-03T23:32:58.658Z,100664.28
2024-03-03T23:35:25.974Z,100666.56
2024-03-03T23:37:53.104Z,100665.47
2024-03-03T23:40:20.362Z,100678.38
2024-03-03T23:42:47.387Z,100676.50
2024-03-03T23:45:14.351Z,100670.03
2024-03-03T23:47:42.784Z,100670.63
2024-03-03T23:50:09.994Z,100684.13
2024-03-03T23:52:36.956Z,100688.47
2024-03-03T23:55:04.816Z,100683.88
2024-03-03T23:57:32.226Z,100701.34
2024-03-03T23:59:59.248Z,100700.09
